Terminal Aerodrome Forecast
Issued by NWS Pueblo, CO

Home | Current Version | Previous Version | Text Only | Print | Product List | Glossary On
Versions: 1 2 3 4 5 6 7 8 9 10 11 12 13 14 15 16 17 18 19 20 21 22 23 24 25 26 27 28 29 30 31 32 33 34 35 36 37 38 39 40 41 42 43 44 45 46 47 48
000
FTUS45 KPUB 300037 AAC
TAFPUB
TAF AMD
KPUB 300037Z 3001/3024 03015G25KT P6SM VCTS SCT060CB BKN110
     FM300400 VRB06KT P6SM FEW060 SCT100
     FM301900 12010KT P6SM FEW070 SCT090 BKN120=

USA.gov is the U.S. government's official web portal to all federal, state and local government web resources and services.